createdAt,value
2018-09-15T00:01:40.541Z,13.50
2018-09-15T00:04:10.088Z,13.50
2018-09-15T00:06:39.564Z,13.50
2018-09-15T00:09:10.120Z,13.40
2018-09-15T00:11:39.656Z,13.50
2018-09-15T00:14:09.299Z,13.50
2018-09-15T00:16:39.158Z,13.50
2018-09-15T00:19:08.723Z,13.50
2018-09-15T00:21:38.229Z,13.50
2018-09-15T00:24:08.161Z,13.50
2018-09-15T00:26:37.643Z,13.50
2018-09-15T00:29:07.253Z,13.40
2018-09-15T00:31:37.050Z,13.40
2018-09-15T00:34:06.654Z,13.50
2018-09-15T00:36:36.163Z,13.40
2018-09-15T00:39:08.698Z,13.40
2018-09-15T00:41:38.240Z,13.40
2018-09-15T00:44:07.784Z,13.40
2018-09-15T00:46:37.248Z,13.40
2018-09-15T00:49:06.730Z,13.40
2018-09-15T00:51:36.233Z,13.40
2018-09-15T00:54:05.711Z,13.40
2018-09-15T00:56:35.218Z,13.40
2018-09-15T00:59:04.703Z,13.40
2018-09-15T01:01:34.284Z,13.40
2018-09-15T01:04:04.652Z,13.40
2018-09-15T01:06:34.200Z,13.30
2018-09-15T01:09:04.589Z,13.30
2018-09-15T01:11:34.099Z,13.30
2018-09-15T01:14:03.955Z,13.20
2018-09-15T01:16:33.381Z,13.20
2018-09-15T01:19:02.956Z,13.20
2018-09-15T01:21:32.525Z,13.20
2018-09-15T01:24:02.027Z,13.20
2018-09-15T01:26:31.852Z,13.20
2018-09-15T01:29:01.344Z,13.20
2018-09-15T01:31:30.881Z,13.10
2018-09-15T01:34:00.392Z,13.10
2018-09-15T01:36:29.909Z,13.10
2018-09-15T01:38:59.413Z,13.10
2018-09-15T01:41:28.935Z,13.10
2018-09-15T01:43:58.757Z,13.10
2018-09-15T01:46:28.222Z,13.10
2018-09-15T01:48:57.721Z,13.10
2018-09-15T01:51:27.244Z,13.10
2018-09-15T01:53:56.713Z,13.10
2018-09-15T01:56:26.413Z,13.10
2018-09-15T01:58:55.956Z,13.10
2018-09-15T02:01:25.762Z,13.10
2018-09-15T02:03:55.310Z,13.10
2018-09-15T02:06:24.812Z,13.10
2018-09-15T02:08:54.309Z,13.10
2018-09-15T02:11:23.820Z,13.10
2018-09-15T02:13:53.342Z,13.20
2018-09-15T02:16:22.899Z,13.20
2018-09-15T02:18:52.697Z,13.20
2018-09-15T02:21:22.184Z,13.20
2018-09-15T02:23:51.723Z,13.20
2018-09-15T02:26:21.548Z,13.20
2018-09-15T02:28:51.043Z,13.20
2018-09-15T02:31:20.521Z,13.20
2018-09-15T02:33:50.097Z,13.20
2018-09-15T02:36:19.683Z,13.20
2018-09-15T02:38:49.189Z,13.30
2018-09-15T02:41:18.652Z,13.30
2018-09-15T02:43:48.919Z,13.30
2018-09-15T02:46:18.479Z,13.30
2018-09-15T02:48:48.238Z,13.30
2018-09-15T02:51:17.772Z,13.30
2018-09-15T02:53:47.289Z,13.30
2018-09-15T02:56:16.827Z,13.20
2018-09-15T02:58:46.332Z,13.20
2018-09-15T03:01:15.862Z,13.20
2018-09-15T03:03:45.384Z,13.20
2018-09-15T03:06:14.953Z,13.20
2018-09-15T03:08:44.431Z,13.20
2018-09-15T03:11:14.077Z,13.20
2018-09-15T03:13:43.604Z,13.10
2018-09-15T03:16:13.579Z,13.10
2018-09-15T03:18:43.078Z,13.10
2018-09-15T03:21:12.605Z,13.10
2018-09-15T03:23:42.272Z,13.10
2018-09-15T03:26:11.895Z,13.10
2018-09-15T03:28:41.550Z,13.10
2018-09-15T03:31:11.122Z,13.10
2018-09-15T03:33:40.721Z,13.10
2018-09-15T03:36:10.234Z,13.10
2018-09-15T03:38:39.753Z,13.10
2018-09-15T03:41:09.260Z,13.10
2018-09-15T03:43:38.851Z,13.10
2018-09-15T03:46:08.720Z,13.10
2018-09-15T03:48:38.273Z,13.10
2018-09-15T03:51:07.804Z,13.00
2018-09-15T03:53:38.290Z,13.10
2018-09-15T03:56:08.161Z,13.00
2018-09-15T03:58:37.625Z,13.10
2018-09-15T04:01:07.303Z,13.10
2018-09-15T04:03:36.817Z,13.10
2018-09-15T04:06:06.345Z,13.10
2018-09-15T04:08:35.881Z,13.00
2018-09-15T04:11:05.375Z,13.00
2018-09-15T04:13:34.909Z,13.00
2018-09-15T04:16:04.470Z,13.00
2018-09-15T04:18:34.048Z,13.00
2018-09-15T04:21:03.588Z,13.00
2018-09-15T04:23:33.091Z,13.00
2018-09-15T04:26:02.648Z,12.90
2018-09-15T04:28:32.256Z,13.00
2018-09-15T04:31:01.696Z,13.00
2018-09-15T04:33:31.285Z,13.00
2018-09-15T04:36:00.787Z,13.00
2018-09-15T04:38:30.359Z,12.90
2018-09-15T04:40:59.836Z,12.90
2018-09-15T04:43:29.441Z,12.90
2018-09-15T04:45:58.958Z,12.90
2018-09-15T04:48:28.655Z,12.90
2018-09-15T04:50:58.237Z,12.90
2018-09-15T04:53:27.681Z,12.90
2018-09-15T04:55:57.197Z,12.90
2018-09-15T04:58:26.638Z,12.90
2018-09-15T05:00:56.256Z,12.90
2018-09-15T05:03:25.824Z,12.90
2018-09-15T05:05:55.339Z,12.90
2018-09-15T05:08:24.841Z,12.90
2018-09-15T05:10:54.405Z,12.90
2018-09-15T05:13:23.896Z,12.90
2018-09-15T05:15:53.506Z,12.90
2018-09-15T05:18:22.985Z,12.90
2018-09-15T05:20:52.467Z,12.90
2018-09-15T05:23:22.253Z,12.90
2018-09-15T05:25:51.753Z,12.90
2018-09-15T05:28:21.210Z,12.90
2018-09-15T05:30:50.777Z,12.90
2018-09-15T05:33:20.356Z,12.90
2018-09-15T05:35:49.880Z,12.90
2018-09-15T05:38:19.464Z,12.90
2018-09-15T05:40:49.116Z,12.90
2018-09-15T05:43:18.670Z,12.90
2018-09-15T05:45:48.164Z,12.90
2018-09-15T05:48:19.587Z,12.90
2018-09-15T05:50:49.098Z,12.90
2018-09-15T05:53:18.626Z,12.90
2018-09-15T05:55:48.152Z,12.90
2018-09-15T05:58:17.701Z,12.90
2018-09-15T06:00:47.226Z,12.90
2018-09-15T06:03:17.021Z,13.00
2018-09-15T06:05:46.529Z,12.90
2018-09-15T06:08:16.002Z,13.00
2018-09-15T06:10:45.509Z,13.00
2018-09-15T06:13:15.118Z,13.00
2018-09-15T06:15:44.605Z,13.00
2018-09-15T06:18:14.087Z,13.10
2018-09-15T06:20:43.556Z,13.00
2018-09-15T06:23:13.119Z,13.10
2018-09-15T06:25:42.683Z,13.10
2018-09-15T06:28:12.223Z,13.10
2018-09-15T06:30:41.711Z,13.10
2018-09-15T06:33:11.358Z,13.10
2018-09-15T06:35:40.890Z,13.10
2018-09-15T06:38:10.366Z,13.10
2018-09-15T06:40:39.837Z,13.20
2018-09-15T06:43:09.399Z,13.30
2018-09-15T06:45:39.035Z,13.30
2018-09-15T06:48:08.720Z,13.30
2018-09-15T06:50:38.179Z,13.30
2018-09-15T06:53:07.738Z,13.30
2018-09-15T06:55:37.325Z,13.30
2018-09-15T06:58:06.864Z,13.40
2018-09-15T07:00:36.422Z,13.40
2018-09-15T07:03:05.929Z,13.40
2018-09-15T07:05:35.539Z,13.40
2018-09-15T07:08:05.086Z,13.40
2018-09-15T07:10:34.599Z,13.50
2018-09-15T07:13:04.180Z,13.50
2018-09-15T07:15:33.753Z,13.50
2018-09-15T07:18:03.299Z,13.60
2018-09-15T07:20:32.787Z,13.70
2018-09-15T07:23:02.283Z,13.80
2018-09-15T07:25:31.779Z,13.90
2018-09-15T07:28:01.311Z,14.00
2018-09-15T07:30:30.760Z,14.00
2018-09-15T07:33:00.229Z,14.00
2018-09-15T07:35:29.772Z,14.10
2018-09-15T07:37:59.343Z,14.00
2018-09-15T07:40:29.085Z,14.00
2018-09-15T07:42:58.869Z,14.00
2018-09-15T07:45:28.406Z,14.00
2018-09-15T07:47:57.899Z,14.00
2018-09-15T07:50:27.453Z,14.00
2018-09-15T07:52:57.017Z,14.00
2018-09-15T07:55:26.589Z,14.00
2018-09-15T07:57:56.182Z,14.00
2018-09-15T08:00:25.855Z,14.10
2018-09-15T08:02:55.396Z,14.10
2018-09-15T08:05:24.890Z,14.20
2018-09-15T08:07:54.392Z,14.30
2018-09-15T08:10:23.842Z,14.30
2018-09-15T08:12:53.352Z,14.30
2018-09-15T08:15:22.907Z,14.30
2018-09-15T08:17:52.477Z,14.30
2018-09-15T08:20:22.025Z,14.40
2018-09-15T08:22:51.491Z,14.40
2018-09-15T08:25:20.992Z,14.50
2018-09-15T08:27:50.532Z,14.60
2018-09-15T08:30:20.065Z,14.60
2018-09-15T08:32:49.858Z,14.70
2018-09-15T08:35:19.383Z,14.80
2018-09-15T08:37:48.846Z,14.80
2018-09-15T08:40:18.363Z,14.80
2018-09-15T08:42:47.900Z,14.80
2018-09-15T08:45:18.283Z,14.90
2018-09-15T08:47:47.797Z,15.00
2018-09-15T08:50:17.257Z,15.00
2018-09-15T08:52:47.039Z,15.00
2018-09-15T08:55:16.661Z,15.00
2018-09-15T08:57:46.201Z,15.00
2018-09-15T09:00:15.752Z,15.00
2018-09-15T09:02:45.235Z,15.10
2018-09-15T09:05:14.837Z,15.00
2018-09-15T09:07:44.372Z,15.10
2018-09-15T09:10:14.050Z,15.20
2018-09-15T09:12:43.601Z,15.30
2018-09-15T09:15:13.083Z,15.30
2018-09-15T09:17:42.599Z,15.30
2018-09-15T09:20:12.115Z,15.20
2018-09-15T09:22:41.590Z,15.10
2018-09-15T09:25:11.063Z,15.10
2018-09-15T09:27:40.579Z,15.00
2018-09-15T09:30:10.157Z,15.00
2018-09-15T09:32:39.670Z,14.90
2018-09-15T09:35:09.288Z,14.90
2018-09-15T09:37:39.193Z,14.80
2018-09-15T09:40:08.841Z,14.80
2018-09-15T09:42:38.414Z,14.80
2018-09-15T09:45:08.466Z,14.80
2018-09-15T09:47:38.288Z,14.80
2018-09-15T09:50:07.847Z,14.80
2018-09-15T09:52:38.188Z,14.80
2018-09-15T09:55:07.843Z,14.90
2018-09-15T09:57:37.527Z,14.90
2018-09-15T10:00:07.244Z,15.00
2018-09-15T10:02:36.778Z,15.10
2018-09-15T10:05:06.356Z,15.10
2018-09-15T10:07:35.844Z,15.30
2018-09-15T10:10:05.879Z,15.30
2018-09-15T10:12:35.458Z,15.40
2018-09-15T10:15:04.971Z,15.50
2018-09-15T10:17:34.477Z,15.30
2018-09-15T10:20:04.006Z,15.30
2018-09-15T10:22:33.629Z,15.20
2018-09-15T10:25:03.170Z,15.20
2018-09-15T10:27:32.679Z,15.10
2018-09-15T10:30:02.212Z,15.10
2018-09-15T10:32:31.753Z,15.00
2018-09-15T10:35:01.291Z,15.00
2018-09-15T10:37:30.848Z,14.80
2018-09-15T10:40:00.331Z,14.80
2018-09-15T10:42:30.102Z,14.80
2018-09-15T10:44:59.554Z,14.70
2018-09-15T10:47:29.084Z,14.60
2018-09-15T10:49:58.571Z,14.60
2018-09-15T10:52:28.418Z,14.60
2018-09-15T10:54:57.931Z,14.60
2018-09-15T10:57:27.474Z,14.50
2018-09-15T10:59:56.969Z,14.60
2018-09-15T11:02:26.433Z,14.70
2018-09-15T11:04:55.980Z,14.70
2018-09-15T11:07:25.496Z,14.80
2018-09-15T11:09:54.997Z,14.80
2018-09-15T11:12:24.566Z,14.90
2018-09-15T11:14:54.093Z,15.00
2018-09-15T11:17:23.582Z,15.20
2018-09-15T11:19:53.101Z,15.30
2018-09-15T11:22:22.587Z,15.50
2018-09-15T11:24:52.193Z,15.70
2018-09-15T11:27:22.001Z,15.90
2018-09-15T11:29:51.480Z,16.10
2018-09-15T11:32:21.327Z,16.20
2018-09-15T11:34:50.858Z,16.40
2018-09-15T11:37:20.335Z,16.20
2018-09-15T11:39:49.875Z,16.50
2018-09-15T11:42:19.337Z,16.60
2018-09-15T11:44:48.851Z,16.60
2018-09-15T11:47:18.410Z,16.70
2018-09-15T11:49:47.941Z,16.80
2018-09-15T11:52:18.481Z,16.90
2018-09-15T11:54:47.958Z,17.00
2018-09-15T11:57:17.465Z,17.10
2018-09-15T11:59:47.039Z,17.20
2018-09-15T12:02:17.677Z,17.10
2018-09-15T12:04:48.071Z,17.30
2018-09-15T12:07:17.586Z,17.40
2018-09-15T12:09:47.082Z,17.60
2018-09-15T12:12:17.219Z,17.80
2018-09-15T12:14:46.974Z,17.90
2018-09-15T12:17:16.476Z,18.00
2018-09-15T12:19:46.059Z,18.10
2018-09-15T12:22:15.761Z,18.20
2018-09-15T12:24:45.671Z,18.20
2018-09-15T12:27:15.632Z,18.20
2018-09-15T12:29:45.139Z,18.10
2018-09-15T12:32:14.566Z,18.00
2018-09-15T12:34:44.036Z,17.70
2018-09-15T12:37:13.588Z,17.50
2018-09-15T12:39:43.041Z,17.40
2018-09-15T12:42:12.624Z,17.50
2018-09-15T12:44:42.315Z,17.60
2018-09-15T12:47:12.081Z,17.80
2018-09-15T12:49:41.507Z,17.90
2018-09-15T12:52:11.076Z,18.20
2018-09-15T12:54:40.538Z,18.30
2018-09-15T12:57:10.076Z,18.50
2018-09-15T12:59:39.657Z,18.50
2018-09-15T13:02:09.375Z,18.60
2018-09-15T13:04:39.078Z,18.70
2018-09-15T13:07:08.674Z,18.50
2018-09-15T13:09:38.207Z,18.70
2018-09-15T13:12:07.751Z,18.80
2018-09-15T13:14:37.244Z,18.90
2018-09-15T13:17:06.985Z,19.00
2018-09-15T13:19:36.496Z,19.10
2018-09-15T13:22:06.254Z,19.10
2018-09-15T13:24:35.771Z,19.10
2018-09-15T13:27:05.432Z,19.20
2018-09-15T13:29:34.992Z,19.20
2018-09-15T13:32:04.546Z,19.10
2018-09-15T13:34:35.061Z,19.10
2018-09-15T13:37:05.620Z,19.20
2018-09-15T13:39:35.542Z,18.90
2018-09-15T13:42:05.124Z,19.00
2018-09-15T13:44:34.565Z,18.90
2018-09-15T13:47:04.055Z,18.90
2018-09-15T13:49:34.306Z,19.10
2018-09-15T13:52:04.533Z,19.30
2018-09-15T13:54:35.301Z,19.30
2018-09-15T13:57:07.034Z,19.40
2018-09-15T13:59:36.652Z,19.30
2018-09-15T14:02:06.220Z,19.30
2018-09-15T14:04:36.435Z,19.30
2018-09-15T14:07:06.295Z,19.30
2018-09-15T14:09:43.291Z,19.20
2018-09-15T14:12:05.408Z,19.20
2018-09-15T14:14:34.908Z,19.40
2018-09-15T14:17:04.468Z,19.50
2018-09-15T14:19:34.540Z,19.60
2018-09-15T14:22:04.077Z,19.60
2018-09-15T14:24:33.529Z,19.60
2018-09-15T14:27:03.007Z,19.40
2018-09-15T14:29:32.897Z,19.30
2018-09-15T14:32:02.435Z,19.30
2018-09-15T14:34:31.969Z,19.20
2018-09-15T14:37:01.464Z,19.30
2018-09-15T14:39:30.950Z,19.40
2018-09-15T14:42:00.404Z,19.50
2018-09-15T14:44:29.923Z,19.50
2018-09-15T14:46:59.470Z,19.40
2018-09-15T14:49:28.995Z,19.50
2018-09-15T14:51:58.500Z,19.60
2018-09-15T14:54:28.026Z,19.70
2018-09-15T14:56:57.720Z,19.80
2018-09-15T14:59:27.273Z,20.00
2018-09-15T15:01:56.756Z,20.10
2018-09-15T15:04:26.683Z,20.30
2018-09-15T15:06:56.197Z,20.20
2018-09-15T15:09:25.713Z,20.20
2018-09-15T15:11:55.334Z,20.10
2018-09-15T15:14:24.880Z,20.20
2018-09-15T15:16:54.452Z,20.10
2018-09-15T15:19:23.988Z,20.20
2018-09-15T15:21:53.715Z,20.30
2018-09-15T15:24:23.244Z,20.40
2018-09-15T15:26:52.759Z,20.40
2018-09-15T15:29:22.282Z,20.20
2018-09-15T15:31:51.802Z,20.20
2018-09-15T15:34:21.333Z,20.10
2018-09-15T15:36:50.858Z,19.80
2018-09-15T15:39:20.775Z,19.70
2018-09-15T15:41:50.320Z,19.50
2018-09-15T15:44:20.460Z,19.50
2018-09-15T15:46:49.975Z,19.20
2018-09-15T15:49:19.853Z,19.10
2018-09-15T15:51:50.630Z,19.10
2018-09-15T15:54:20.221Z,19.00
2018-09-15T15:56:49.696Z,19.00
2018-09-15T15:59:19.353Z,19.00
2018-09-15T16:01:48.914Z,19.00
2018-09-15T16:04:18.428Z,18.90
2018-09-15T16:06:47.951Z,18.80
2018-09-15T16:09:17.446Z,18.60
2018-09-15T16:11:46.935Z,18.50
2018-09-15T16:14:16.497Z,18.40
2018-09-15T16:16:45.987Z,18.30
2018-09-15T16:19:16.639Z,18.10
2018-09-15T16:21:46.195Z,18.00
2018-09-15T16:24:15.682Z,17.80
2018-09-15T16:26:45.210Z,17.70
2018-09-15T16:29:14.753Z,17.60
2018-09-15T16:31:44.218Z,17.60
2018-09-15T16:34:13.780Z,17.50
2018-09-15T16:36:43.245Z,17.50
2018-09-15T16:39:14.830Z,17.40
2018-09-15T16:41:44.580Z,17.30
2018-09-15T16:44:14.250Z,17.20
2018-09-15T16:46:44.206Z,17.20
2018-09-15T16:49:15.011Z,17.10
2018-09-15T16:51:45.584Z,17.00
2018-09-15T16:54:15.317Z,17.00
2018-09-15T16:56:45.201Z,16.90
2018-09-15T16:59:14.849Z,16.80
2018-09-15T17:01:44.334Z,16.70
2018-09-15T17:04:13.841Z,16.60
2018-09-15T17:06:43.634Z,16.50
2018-09-15T17:09:13.195Z,16.40
2018-09-15T17:11:42.668Z,16.30
2018-09-15T17:14:12.143Z,16.20
2018-09-15T17:16:41.715Z,16.20
2018-09-15T17:19:11.246Z,16.10
2018-09-15T17:21:40.732Z,16.00
2018-09-15T17:24:10.203Z,15.80
2018-09-15T17:26:40.425Z,15.80
2018-09-15T17:29:10.078Z,15.70
2018-09-15T17:31:39.764Z,15.60
2018-09-15T17:34:09.301Z,15.50
2018-09-15T17:36:38.776Z,15.40
2018-09-15T17:39:11.706Z,15.30
2018-09-15T17:41:41.293Z,15.30
2018-09-15T17:44:10.749Z,15.20
2018-09-15T17:46:40.644Z,15.20
2018-09-15T17:49:10.338Z,15.10
2018-09-15T17:51:39.803Z,15.10
2018-09-15T17:54:09.337Z,15.00
2018-09-15T17:56:38.838Z,14.90
2018-09-15T17:59:08.330Z,14.80
2018-09-15T18:01:37.852Z,14.70
2018-09-15T18:04:07.476Z,14.60
2018-09-15T18:06:37.011Z,14.60
2018-09-15T18:09:07.577Z,14.50
2018-09-15T18:11:37.098Z,14.40
2018-09-15T18:14:06.701Z,14.30
2018-09-15T18:16:36.182Z,14.20
2018-09-15T18:19:05.678Z,14.20
2018-09-15T18:21:35.162Z,14.20
2018-09-15T18:24:05.155Z,14.10
2018-09-15T18:26:34.676Z,14.10
2018-09-15T18:29:04.727Z,14.00
2018-09-15T18:31:34.375Z,14.00
2018-09-15T18:34:04.095Z,13.90
2018-09-15T18:36:33.612Z,13.90
2018-09-15T18:39:04.383Z,13.90
2018-09-15T18:41:33.904Z,13.80
2018-09-15T18:44:03.403Z,13.80
2018-09-15T18:46:32.947Z,13.80
2018-09-15T18:49:02.518Z,13.70
2018-09-15T18:51:34.052Z,13.60
2018-09-15T18:54:04.899Z,13.60
2018-09-15T18:56:34.742Z,13.50
2018-09-15T18:59:04.248Z,13.50
2018-09-15T19:01:34.571Z,13.40
2018-09-15T19:04:04.298Z,13.30
2018-09-15T19:06:33.821Z,13.30
2018-09-15T19:09:04.941Z,13.20
2018-09-15T19:11:34.426Z,13.20
2018-09-15T19:14:03.935Z,13.20
2018-09-15T19:16:33.567Z,13.10
2018-09-15T19:19:03.034Z,13.10
2018-09-15T19:21:32.525Z,13.10
2018-09-15T19:24:02.113Z,13.00
2018-09-15T19:26:31.669Z,12.90
2018-09-15T19:29:01.129Z,12.90
2018-09-15T19:31:31.598Z,12.80
2018-09-15T19:34:01.981Z,12.80
2018-09-15T19:36:31.507Z,12.80
2018-09-15T19:39:01.025Z,12.70
2018-09-15T19:41:30.542Z,12.70
2018-09-15T19:44:00.066Z,12.70
2018-09-15T19:46:29.639Z,12.60
2018-09-15T19:48:59.257Z,12.50
2018-09-15T19:51:28.921Z,12.50
2018-09-15T19:53:58.593Z,12.50
2018-09-15T19:56:28.103Z,12.40
2018-09-15T19:58:57.925Z,12.40
2018-09-15T20:01:27.499Z,12.40
2018-09-15T20:03:57.586Z,12.40
2018-09-15T20:06:27.445Z,12.30
2018-09-15T20:08:56.975Z,12.30
2018-09-15T20:11:27.326Z,12.30
2018-09-15T20:13:56.793Z,12.20
2018-09-15T20:16:25.037Z,12.20
2018-09-15T20:18:53.320Z,12.20
2018-09-15T20:21:21.589Z,12.20
2018-09-15T20:23:51.117Z,12.10
2018-09-15T20:26:20.568Z,12.10
2018-09-15T20:28:50.039Z,12.10
2018-09-15T20:31:19.521Z,12.10
2018-09-15T20:33:49.124Z,12.00
2018-09-15T20:36:18.613Z,12.00
2018-09-15T20:38:48.081Z,12.00
2018-09-15T20:41:19.067Z,11.90
2018-09-15T20:43:48.952Z,11.90
2018-09-15T20:46:18.424Z,11.90
2018-09-15T20:48:47.885Z,11.90
2018-09-15T20:51:17.377Z,11.90
2018-09-15T20:53:46.918Z,11.80
2018-09-15T20:56:16.392Z,11.80
2018-09-15T20:58:45.888Z,11.80
2018-09-15T21:01:15.725Z,11.70
2018-09-15T21:03:45.275Z,11.70
2018-09-15T21:06:14.787Z,11.60
2018-09-15T21:08:44.645Z,11.60
2018-09-15T21:11:14.124Z,11.60
2018-09-15T21:13:43.671Z,11.60
2018-09-15T21:16:13.206Z,11.50
2018-09-15T21:18:42.731Z,11.50
2018-09-15T21:21:12.232Z,11.50
2018-09-15T21:23:41.726Z,11.40
2018-09-15T21:26:11.221Z,11.40
2018-09-15T21:28:40.797Z,11.40
2018-09-15T21:31:10.280Z,11.30
2018-09-15T21:33:39.774Z,11.30
2018-09-15T21:36:09.308Z,11.30
2018-09-15T21:38:38.836Z,11.30
2018-09-15T21:41:08.352Z,11.30
2018-09-15T21:43:37.853Z,11.20
2018-09-15T21:46:07.511Z,11.20
2018-09-15T21:48:37.001Z,11.20
2018-09-15T21:51:06.748Z,11.10
2018-09-15T21:53:37.044Z,11.10
2018-09-15T21:56:07.078Z,11.10
2018-09-15T21:58:37.148Z,11.10
2018-09-15T22:01:06.998Z,11.10
2018-09-15T22:03:41.745Z,11.00
2018-09-15T22:06:11.464Z,11.00
2018-09-15T22:08:40.923Z,11.00
2018-09-15T22:11:10.495Z,11.00
2018-09-15T22:13:40.168Z,11.00
2018-09-15T22:16:09.725Z,11.00
2018-09-15T22:18:39.239Z,11.00
2018-09-15T22:21:09.646Z,10.90
2018-09-15T22:23:39.175Z,11.00
2018-09-15T22:26:08.680Z,10.90
2018-09-15T22:28:40.134Z,10.90
2018-09-15T22:31:09.717Z,10.90
2018-09-15T22:33:39.177Z,10.90
2018-09-15T22:36:09.123Z,10.80
2018-09-15T22:38:38.603Z,10.80
2018-09-15T22:41:08.199Z,10.80
2018-09-15T22:43:37.697Z,10.80
2018-09-15T22:46:07.985Z,10.80
2018-09-15T22:48:37.489Z,10.80
2018-09-15T22:51:07.371Z,10.80
2018-09-15T22:53:37.528Z,10.80
2018-09-15T22:56:07.190Z,10.80
2018-09-15T22:58:36.718Z,10.70
2018-09-15T23:01:06.234Z,10.70
2018-09-15T23:03:37.126Z,10.70
2018-09-15T23:06:06.454Z,10.70
2018-09-15T23:08:36.436Z,10.70
2018-09-15T23:11:06.225Z,10.70
2018-09-15T23:13:35.493Z,10.70
2018-09-15T23:16:04.768Z,10.70
2018-09-15T23:18:34.436Z,10.70
2018-09-15T23:21:03.664Z,10.60
2018-09-15T23:23:32.900Z,10.60
2018-09-15T23:26:02.102Z,10.60
2018-09-15T23:28:31.642Z,10.60
2018-09-15T23:31:01.118Z,10.60
2018-09-15T23:33:30.595Z,10.60
2018-09-15T23:36:00.091Z,10.60
2018-09-15T23:38:29.955Z,10.60
2018-09-15T23:40:59.444Z,10.60
2018-09-15T23:43:29.186Z,10.60
2018-09-15T23:45:58.677Z,10.50
2018-09-15T23:48:28.164Z,10.50
2018-09-15T23:50:57.725Z,10.50
2018-09-15T23:53:27.196Z,10.50
2018-09-15T23:55:56.706Z,10.50
2018-09-15T23:58:26.174Z,10.50
